createdAt,value
2022-11-06T00:01:14.571Z,99.90
2022-11-06T00:03:42.078Z,99.90
2022-11-06T00:06:29.259Z,99.90
2022-11-06T00:08:56.740Z,99.90
2022-11-06T00:11:24.083Z,99.90
2022-11-06T00:13:52.635Z,99.90
2022-11-06T00:16:20.135Z,99.90
2022-11-06T00:18:47.717Z,99.90
2022-11-06T00:21:17.797Z,99.90
2022-11-06T00:23:46.221Z,99.90
2022-11-06T00:26:18.370Z,99.90
2022-11-06T00:28:45.808Z,99.90
2022-11-06T00:31:15.165Z,99.90
2022-11-06T00:33:42.687Z,99.90
2022-11-06T00:36:12.228Z,99.90
2022-11-06T00:38:39.505Z,99.90
2022-11-06T00:41:08.663Z,99.90
2022-11-06T00:43:36.383Z,99.90
2022-11-06T00:46:07.708Z,99.90
2022-11-06T00:48:35.561Z,99.90
2022-11-06T00:51:04.179Z,99.90
2022-11-06T00:53:31.659Z,99.90
2022-11-06T00:56:14.401Z,99.90
2022-11-06T00:58:41.839Z,99.90
2022-11-06T01:01:12.960Z,99.90
2022-11-06T01:03:41.006Z,99.90
2022-11-06T01:06:12.810Z,99.90
2022-11-06T01:08:40.295Z,99.90
2022-11-06T01:11:18.755Z,99.90
2022-11-06T01:13:46.470Z,99.90
2022-11-06T01:16:15.249Z,99.90
2022-11-06T01:18:43.361Z,99.90
2022-11-06T01:21:18.237Z,99.90
2022-11-06T01:23:45.821Z,99.90
2022-11-06T01:26:14.090Z,99.90
2022-11-06T01:28:41.758Z,99.90
2022-11-06T01:31:14.274Z,99.90
2022-11-06T01:33:41.751Z,99.90
2022-11-06T01:36:12.455Z,99.90
2022-11-06T01:38:47.571Z,99.90
2022-11-06T01:41:20.439Z,99.90
2022-11-06T01:43:48.865Z,99.90
2022-11-06T01:46:17.486Z,99.90
2022-11-06T01:48:48.788Z,99.90
2022-11-06T01:51:16.180Z,99.90
2022-11-06T01:53:43.525Z,99.90
2022-11-06T01:56:12.092Z,99.90
2022-11-06T01:58:41.507Z,99.90
2022-11-06T02:01:13.676Z,99.90
2022-11-06T02:03:43.229Z,99.90
2022-11-06T02:06:10.522Z,99.90
2022-11-06T02:08:37.815Z,99.90
2022-11-06T02:11:05.277Z,99.90
2022-11-06T02:14:06.648Z,99.90
2022-11-06T02:16:52.122Z,99.90
2022-11-06T02:19:37.601Z,99.90
2022-11-06T02:22:23.454Z,99.90
2022-11-06T02:24:59.278Z,99.90
2022-11-06T02:27:28.069Z,99.90
2022-11-06T02:30:06.208Z,99.90
2022-11-06T02:32:52.564Z,99.90
2022-11-06T02:35:30.152Z,99.90
2022-11-06T02:38:04.109Z,99.90
2022-11-06T02:40:33.295Z,99.90
2022-11-06T02:43:02.766Z,99.90
2022-11-06T02:45:30.266Z,99.90
2022-11-06T02:47:57.617Z,99.90
2022-11-06T02:50:35.724Z,99.90
2022-11-06T02:53:05.084Z,99.90
2022-11-06T02:55:44.014Z,99.90
2022-11-06T02:58:14.726Z,99.90
2022-11-06T03:00:43.235Z,99.90
2022-11-06T03:03:15.054Z,99.90
2022-11-06T03:05:58.229Z,99.90
2022-11-06T03:08:29.646Z,99.90
2022-11-06T03:11:12.145Z,99.90
2022-11-06T03:13:56.669Z,99.90
2022-11-06T03:16:50.587Z,99.90
2022-11-06T03:19:49.771Z,99.90
2022-11-06T03:22:31.508Z,99.90
2022-11-06T03:25:03.033Z,99.90
2022-11-06T03:27:34.017Z,99.90
2022-11-06T03:30:16.316Z,99.90
2022-11-06T03:33:01.097Z,99.90
2022-11-06T03:35:53.153Z,99.90
2022-11-06T03:38:29.054Z,99.90
2022-11-06T03:41:05.500Z,99.90
2022-11-06T03:43:35.897Z,99.90
2022-11-06T03:46:06.181Z,99.90
2022-11-06T03:48:58.212Z,99.90
2022-11-06T03:51:29.227Z,99.90
2022-11-06T03:54:02.926Z,99.90
2022-11-06T03:56:37.676Z,99.90
2022-11-06T03:59:05.814Z,99.90
2022-11-06T04:01:36.515Z,99.90
2022-11-06T04:04:26.322Z,99.90
2022-11-06T04:06:55.397Z,99.90
2022-11-06T04:09:42.608Z,99.90
2022-11-06T04:12:28.618Z,99.90
2022-11-06T04:14:56.396Z,99.90
2022-11-06T04:17:24.043Z,99.90
2022-11-06T04:19:57.818Z,99.90
2022-11-06T04:22:30.869Z,99.90
2022-11-06T04:25:55.491Z,99.90
2022-11-06T04:28:22.801Z,99.90
2022-11-06T04:31:00.109Z,99.90
2022-11-06T04:33:32.453Z,99.90
2022-11-06T04:35:59.739Z,99.90
2022-11-06T04:38:36.402Z,99.90
2022-11-06T04:41:20.230Z,99.90
2022-11-06T04:43:49.191Z,99.90
2022-11-06T04:46:23.638Z,99.90
2022-11-06T04:48:50.988Z,99.90
2022-11-06T04:51:21.054Z,99.90
2022-11-06T04:53:48.774Z,99.90
2022-11-06T04:56:23.847Z,99.90
2022-11-06T04:58:52.896Z,99.90
2022-11-06T05:01:20.359Z,99.90
2022-11-06T05:03:47.737Z,99.90
2022-11-06T05:06:15.052Z,99.90
2022-11-06T05:08:42.375Z,99.90
2022-11-06T05:11:09.711Z,99.90
2022-11-06T05:13:38.241Z,99.90
2022-11-06T05:16:05.752Z,99.90
2022-11-06T05:18:33.213Z,99.90
2022-11-06T05:21:19.892Z,99.90
2022-11-06T05:23:47.210Z,99.90
2022-11-06T05:26:14.581Z,99.90
2022-11-06T05:28:41.917Z,99.90
2022-11-06T05:31:09.233Z,99.90
2022-11-06T05:33:36.762Z,99.90
2022-11-06T05:36:05.058Z,99.90
2022-11-06T05:38:32.653Z,99.90
2022-11-06T05:41:00.040Z,99.90
2022-11-06T05:43:27.414Z,99.90
2022-11-06T05:45:54.791Z,99.90
2022-11-06T05:48:22.177Z,99.90
2022-11-06T05:50:49.441Z,99.90
2022-11-06T05:53:16.926Z,99.90
2022-11-06T05:55:47.094Z,99.90
2022-11-06T05:58:14.946Z,99.90
2022-11-06T06:00:42.405Z,99.90
2022-11-06T06:03:10.300Z,99.90
2022-11-06T06:05:37.677Z,99.90
2022-11-06T06:08:05.489Z,99.90
2022-11-06T06:10:32.760Z,99.90
2022-11-06T06:13:00.054Z,99.90
2022-11-06T06:15:27.409Z,99.90
2022-11-06T06:17:54.745Z,99.90
2022-11-06T06:20:22.146Z,99.90
2022-11-06T06:22:56.389Z,99.90
2022-11-06T06:25:23.840Z,99.90
2022-11-06T06:27:51.445Z,99.90
2022-11-06T06:30:19.061Z,99.90
2022-11-06T06:32:46.424Z,99.90
2022-11-06T06:35:13.728Z,99.90
2022-11-06T06:37:41.049Z,99.90
2022-11-06T06:40:09.881Z,99.90
2022-11-06T06:42:37.237Z,99.90
2022-11-06T06:45:04.937Z,99.90
2022-11-06T06:47:32.259Z,99.90
2022-11-06T06:49:59.547Z,99.90
2022-11-06T06:52:26.849Z,99.90
2022-11-06T06:54:54.218Z,99.90
2022-11-06T06:57:21.541Z,99.90
2022-11-06T06:59:48.863Z,99.90
2022-11-06T07:02:16.250Z,99.90
2022-11-06T07:04:43.585Z,99.90
2022-11-06T07:07:10.932Z,99.90
2022-11-06T07:09:38.326Z,99.90
2022-11-06T07:12:05.747Z,99.90
2022-11-06T07:14:33.021Z,99.90
2022-11-06T07:17:00.341Z,99.90
2022-11-06T07:19:27.661Z,99.90
2022-11-06T07:21:55.011Z,99.90
2022-11-06T07:24:22.385Z,99.90
2022-11-06T07:26:49.983Z,99.90
2022-11-06T07:29:17.333Z,99.90
2022-11-06T07:31:44.611Z,99.90
2022-11-06T07:34:12.003Z,99.90
2022-11-06T07:36:39.350Z,99.90
2022-11-06T07:39:06.658Z,99.90
2022-11-06T07:41:33.977Z,99.90
2022-11-06T07:44:01.340Z,99.90
2022-11-06T07:46:28.786Z,99.90
2022-11-06T07:48:56.157Z,99.90
2022-11-06T07:51:23.495Z,99.90
2022-11-06T07:53:50.881Z,99.90
2022-11-06T07:56:18.480Z,99.90
2022-11-06T07:58:45.823Z,99.90
2022-11-06T08:01:18.614Z,99.90
2022-11-06T08:03:46.511Z,99.90
2022-11-06T08:06:13.869Z,99.90
2022-11-06T08:08:41.206Z,99.90
2022-11-06T08:11:09.779Z,99.90
2022-11-06T08:13:37.564Z,99.90
2022-11-06T08:16:06.293Z,99.90
2022-11-06T08:18:33.621Z,99.90
2022-11-06T08:21:00.991Z,99.90
2022-11-06T08:23:28.370Z,99.90
2022-11-06T08:25:56.728Z,99.90
2022-11-06T08:28:24.997Z,99.90
2022-11-06T08:30:53.188Z,99.90
2022-11-06T08:33:20.982Z,99.90
2022-11-06T08:35:48.469Z,99.90
2022-11-06T08:38:16.616Z,99.90
2022-11-06T08:40:47.038Z,99.90
2022-11-06T08:43:16.894Z,99.90
2022-11-06T08:45:44.532Z,99.90
2022-11-06T08:48:12.016Z,99.90
2022-11-06T08:50:39.707Z,99.90
2022-11-06T08:53:07.230Z,99.90
2022-11-06T08:55:35.449Z,99.90
2022-11-06T08:58:02.980Z,99.90
2022-11-06T09:00:30.571Z,99.90
2022-11-06T09:03:02.745Z,99.90
2022-11-06T09:05:31.027Z,99.90
2022-11-06T09:07:58.750Z,99.90
2022-11-06T09:10:26.503Z,99.90
2022-11-06T09:12:54.006Z,99.90
2022-11-06T09:15:21.381Z,99.90
2022-11-06T09:17:49.649Z,99.90
2022-11-06T09:20:18.939Z,99.90
2022-11-06T09:22:46.598Z,99.90
2022-11-06T09:25:14.357Z,99.90
2022-11-06T09:27:52.081Z,99.90
2022-11-06T09:30:23.463Z,99.90
2022-11-06T09:32:52.842Z,99.90
2022-11-06T09:35:20.778Z,99.90
2022-11-06T09:37:48.257Z,99.90
2022-11-06T09:40:22.627Z,99.90
2022-11-06T09:43:02.151Z,99.90
2022-11-06T09:45:31.153Z,99.90
2022-11-06T09:48:16.778Z,99.90
2022-11-06T09:51:07.982Z,99.90
2022-11-06T09:53:38.005Z,99.90
2022-11-06T09:56:05.764Z,99.90
2022-11-06T09:58:37.463Z,99.90
2022-11-06T10:01:27.102Z,99.90
2022-11-06T10:03:58.948Z,99.90
2022-11-06T10:06:26.358Z,99.90
2022-11-06T10:08:56.712Z,99.90
2022-11-06T10:11:35.979Z,99.90
2022-11-06T10:14:35.284Z,99.90
2022-11-06T10:17:44.810Z,99.90
2022-11-06T10:20:26.488Z,99.90
2022-11-06T10:23:26.617Z,99.90
2022-11-06T10:25:59.792Z,99.90
2022-11-06T10:28:34.520Z,99.90
2022-11-06T10:31:35.806Z,99.90
2022-11-06T10:34:12.417Z,99.90
2022-11-06T10:36:54.746Z,99.90
2022-11-06T10:39:28.754Z,99.90
2022-11-06T10:42:17.392Z,99.90
2022-11-06T10:45:00.888Z,99.90
2022-11-06T10:47:34.004Z,99.90
2022-11-06T10:50:02.519Z,99.90
2022-11-06T10:52:32.688Z,99.90
2022-11-06T10:55:02.811Z,99.90
2022-11-06T10:57:50.414Z,99.90
2022-11-06T11:00:17.861Z,99.90
2022-11-06T11:02:51.955Z,99.90
2022-11-06T11:05:20.811Z,99.90
2022-11-06T11:07:49.222Z,99.90
2022-11-06T11:10:37.077Z,99.90
2022-11-06T11:13:08.411Z,99.90
2022-11-06T11:15:54.462Z,99.90
2022-11-06T11:18:31.104Z,99.90
2022-11-06T11:21:06.114Z,99.90
2022-11-06T11:23:33.420Z,99.90
2022-11-06T11:26:25.531Z,99.90
2022-11-06T11:28:55.020Z,99.90
2022-11-06T11:31:31.400Z,99.90
2022-11-06T11:34:07.242Z,99.90
2022-11-06T11:37:02.927Z,99.90
2022-11-06T11:39:34.845Z,99.90
2022-11-06T11:42:25.471Z,99.90
2022-11-06T11:45:18.096Z,99.90
2022-11-06T11:47:47.433Z,99.90
2022-11-06T11:50:33.333Z,99.90
2022-11-06T11:53:11.835Z,99.90
2022-11-06T11:55:42.272Z,99.90
2022-11-06T11:58:35.999Z,99.90
2022-11-06T12:01:04.504Z,99.90
2022-11-06T12:03:41.902Z,99.90
2022-11-06T12:06:14.133Z,99.90
2022-11-06T12:08:45.397Z,99.90
2022-11-06T12:11:19.937Z,99.90
2022-11-06T12:14:23.832Z,99.90
2022-11-06T12:16:52.617Z,99.90
2022-11-06T12:19:20.512Z,99.90
2022-11-06T12:21:51.977Z,99.90
2022-11-06T12:24:22.610Z,99.90
2022-11-06T12:26:58.408Z,99.90
2022-11-06T12:29:32.089Z,99.90
2022-11-06T12:32:30.452Z,99.90
2022-11-06T12:35:25.308Z,99.90
2022-11-06T12:38:25.139Z,99.90
2022-11-06T12:40:58.520Z,99.90
2022-11-06T12:43:53.720Z,99.90
2022-11-06T12:46:29.934Z,99.90
2022-11-06T12:49:21.889Z,99.90
2022-11-06T12:51:57.477Z,99.90
2022-11-06T12:54:52.982Z,99.90
2022-11-06T12:57:31.980Z,99.90
2022-11-06T13:00:06.571Z,99.90
2022-11-06T13:02:52.358Z,99.90
2022-11-06T13:05:25.620Z,99.90
2022-11-06T13:08:04.970Z,99.90
2022-11-06T13:10:59.621Z,99.90
2022-11-06T13:13:55.124Z,99.90
2022-11-06T13:16:28.989Z,99.90
2022-11-06T13:18:58.581Z,99.90
2022-11-06T13:21:35.703Z,99.90
2022-11-06T13:24:15.404Z,99.90
2022-11-06T13:26:59.611Z,99.90
2022-11-06T13:29:27.184Z,99.90
2022-11-06T13:31:59.645Z,99.90
2022-11-06T13:34:29.615Z,99.90
2022-11-06T13:36:57.133Z,99.90
2022-11-06T13:39:41.405Z,99.90
2022-11-06T13:42:27.453Z,99.90
2022-11-06T13:44:54.786Z,99.90
2022-11-06T13:47:29.309Z,99.90
2022-11-06T13:50:11.766Z,99.90
2022-11-06T13:52:46.606Z,99.90
2022-11-06T13:55:25.583Z,99.90
2022-11-06T13:58:24.231Z,99.90
2022-11-06T14:01:16.810Z,99.90
2022-11-06T14:04:03.073Z,99.90
2022-11-06T14:06:31.827Z,99.90
2022-11-06T14:09:00.860Z,99.90
2022-11-06T14:11:36.401Z,99.90
2022-11-06T14:14:23.227Z,99.90
2022-11-06T14:17:15.620Z,99.90
2022-11-06T14:19:51.334Z,99.90
2022-11-06T14:22:32.799Z,99.90
2022-11-06T14:25:02.239Z,99.90
2022-11-06T14:27:29.960Z,99.90
2022-11-06T14:30:03.315Z,99.90
2022-11-06T14:32:30.657Z,99.90
2022-11-06T14:35:18.572Z,99.90
2022-11-06T14:37:46.779Z,99.90
2022-11-06T14:40:14.767Z,99.90
2022-11-06T14:42:45.979Z,99.90
2022-11-06T14:45:20.146Z,99.90
2022-11-06T14:47:49.913Z,99.90
2022-11-06T14:50:20.405Z,99.90
2022-11-06T14:52:50.960Z,99.90
2022-11-06T14:55:35.317Z,99.90
2022-11-06T14:58:21.178Z,99.90
2022-11-06T15:01:10.936Z,99.90
2022-11-06T15:03:51.437Z,99.90
2022-11-06T15:06:18.744Z,99.90
2022-11-06T15:08:49.307Z,99.90
2022-11-06T15:11:32.050Z,99.90
2022-11-06T15:14:08.752Z,99.90
2022-11-06T15:16:43.377Z,99.90
2022-11-06T15:19:31.738Z,99.90
2022-11-06T15:22:33.695Z,99.90
2022-11-06T15:25:24.495Z,99.90
2022-11-06T15:28:13.496Z,99.90
2022-11-06T15:30:58.026Z,99.90
2022-11-06T15:33:32.541Z,99.90
2022-11-06T15:36:04.170Z,99.90
2022-11-06T15:38:39.691Z,99.90
2022-11-06T15:41:08.949Z,99.90
2022-11-06T15:43:37.487Z,99.90
2022-11-06T15:46:23.868Z,99.90
2022-11-06T15:49:16.942Z,99.90
2022-11-06T15:52:01.007Z,99.90
2022-11-06T15:54:38.583Z,99.90
2022-11-06T15:57:24.402Z,99.90
2022-11-06T16:00:06.217Z,99.90
2022-11-06T16:02:49.971Z,99.90
2022-11-06T16:05:17.550Z,99.90
2022-11-06T16:07:47.898Z,99.90
2022-11-06T16:10:19.855Z,99.90
2022-11-06T16:12:50.920Z,99.90
2022-11-06T16:15:49.578Z,99.90
2022-11-06T16:18:35.690Z,99.90
2022-11-06T16:21:17.538Z,99.90
2022-11-06T16:23:50.901Z,99.90
2022-11-06T16:26:26.600Z,99.90
2022-11-06T16:28:54.850Z,99.90
2022-11-06T16:31:29.521Z,99.90
2022-11-06T16:33:58.031Z,99.90
2022-11-06T16:36:26.523Z,99.90
2022-11-06T16:38:54.086Z,99.90
2022-11-06T16:41:53.987Z,99.90
2022-11-06T16:44:30.964Z,99.90
2022-11-06T16:47:05.037Z,99.90
2022-11-06T16:49:36.707Z,99.90
2022-11-06T16:52:29.739Z,99.90
2022-11-06T16:54:57.027Z,99.90
2022-11-06T16:57:29.754Z,99.90
2022-11-06T17:00:11.939Z,99.90
2022-11-06T17:02:39.468Z,99.90
2022-11-06T17:05:18.249Z,99.90
2022-11-06T17:07:45.865Z,99.90
2022-11-06T17:10:35.241Z,99.90
2022-11-06T17:13:41.577Z,99.90
2022-11-06T17:16:23.417Z,99.90
2022-11-06T17:18:50.950Z,99.90
2022-11-06T17:21:20.240Z,99.90
2022-11-06T17:23:47.928Z,99.90
2022-11-06T17:26:29.479Z,99.90
2022-11-06T17:28:57.436Z,99.90
2022-11-06T17:31:25.088Z,99.90
2022-11-06T17:33:52.880Z,99.90
2022-11-06T17:36:27.989Z,99.90
2022-11-06T17:38:55.792Z,99.90
2022-11-06T17:41:32.473Z,99.90
2022-11-06T17:44:04.137Z,99.90
2022-11-06T17:46:40.249Z,99.90
2022-11-06T17:49:09.680Z,99.90
2022-11-06T17:52:12.228Z,99.90
2022-11-06T17:54:39.738Z,99.90
2022-11-06T17:57:07.585Z,99.90
2022-11-06T17:59:35.283Z,99.90
2022-11-06T18:02:02.942Z,99.90
2022-11-06T18:04:30.675Z,99.90
2022-11-06T18:06:58.489Z,99.90
2022-11-06T18:09:26.224Z,99.90
2022-11-06T18:11:54.047Z,99.90
2022-11-06T18:14:21.794Z,99.90
2022-11-06T18:16:49.162Z,99.90
2022-11-06T18:19:19.655Z,99.90
2022-11-06T18:21:47.255Z,99.90
2022-11-06T18:24:14.924Z,99.90
2022-11-06T18:26:42.309Z,99.90
2022-11-06T18:29:10.851Z,99.90
2022-11-06T18:31:38.246Z,99.90
2022-11-06T18:34:05.728Z,99.90
2022-11-06T18:36:35.062Z,99.90
2022-11-06T18:39:05.700Z,99.90
2022-11-06T18:41:33.259Z,99.90
2022-11-06T18:44:00.871Z,99.90
2022-11-06T18:46:28.389Z,99.90
2022-11-06T18:48:56.246Z,99.90
2022-11-06T18:51:34.479Z,99.90
2022-11-06T18:54:05.872Z,99.90
2022-11-06T18:56:35.816Z,99.90
2022-11-06T18:59:04.366Z,99.90
2022-11-06T19:01:31.934Z,99.90
2022-11-06T19:03:59.612Z,99.90
2022-11-06T19:06:27.038Z,99.90
2022-11-06T19:08:54.345Z,99.90
2022-11-06T19:11:21.893Z,99.90
2022-11-06T19:13:49.250Z,99.90
2022-11-06T19:16:19.267Z,99.90
2022-11-06T19:18:47.015Z,99.90
2022-11-06T19:21:14.440Z,99.90
2022-11-06T19:23:43.009Z,99.90
2022-11-06T19:29:00.242Z,99.90
2022-11-06T19:31:31.811Z,99.90
2022-11-06T19:33:59.593Z,99.90
2022-11-06T19:36:27.440Z,99.90
2022-11-06T19:38:54.866Z,99.90
2022-11-06T19:41:22.200Z,99.90
2022-11-06T19:43:49.537Z,99.90
2022-11-06T19:46:24.945Z,99.90
2022-11-06T19:48:53.237Z,99.90
2022-11-06T19:51:20.853Z,99.90
2022-11-06T19:53:54.384Z,99.90
2022-11-06T19:56:21.981Z,99.90
2022-11-06T19:58:50.256Z,99.90
2022-11-06T20:01:17.834Z,99.90
2022-11-06T20:03:45.305Z,99.90
2022-11-06T20:06:13.414Z,99.90
2022-11-06T20:08:40.789Z,99.90
2022-11-06T20:11:12.910Z,99.90
2022-11-06T20:13:43.763Z,99.90
2022-11-06T20:16:16.365Z,99.90
2022-11-06T20:18:44.552Z,99.90
2022-11-06T20:21:12.295Z,99.90
2022-11-06T20:23:39.675Z,99.90
2022-11-06T20:26:07.082Z,99.90
2022-11-06T20:28:34.600Z,99.90
2022-11-06T20:31:09.076Z,99.90
2022-11-06T20:33:36.672Z,99.90
2022-11-06T20:36:19.113Z,99.90
2022-11-06T20:38:46.621Z,99.90
2022-11-06T20:41:14.889Z,99.90
2022-11-06T20:43:42.367Z,99.90
2022-11-06T20:46:10.177Z,99.90
2022-11-06T20:48:37.747Z,99.90
2022-11-06T20:51:07.107Z,99.90
2022-11-06T20:53:34.716Z,99.90
2022-11-06T20:56:04.221Z,99.90
2022-11-06T20:58:31.681Z,99.90
2022-11-06T21:01:03.069Z,99.90
2022-11-06T21:03:30.734Z,99.90
2022-11-06T21:05:58.418Z,99.90
2022-11-06T21:08:25.999Z,99.90
2022-11-06T21:11:06.008Z,99.90
2022-11-06T21:13:34.253Z,99.90
2022-11-06T21:16:06.180Z,99.90
2022-11-06T21:18:37.481Z,99.90
2022-11-06T21:21:12.448Z,99.90
2022-11-06T21:23:39.956Z,99.90
2022-11-06T21:26:14.905Z,99.90
2022-11-06T21:28:43.367Z,99.90
2022-11-06T21:31:14.858Z,99.90
2022-11-06T21:33:42.965Z,99.90
2022-11-06T21:36:14.946Z,99.90
2022-11-06T21:38:42.352Z,99.90
2022-11-06T21:41:17.917Z,99.90
2022-11-06T21:43:45.369Z,99.90
2022-11-06T21:46:12.951Z,99.90
2022-11-06T21:48:46.246Z,99.90
2022-11-06T21:51:19.801Z,99.90
2022-11-06T21:54:06.049Z,99.90
2022-11-06T23:19:08.799Z,98.80
2022-11-06T23:21:36.267Z,98.50
2022-11-06T23:24:04.250Z,98.50
2022-11-06T23:26:31.965Z,98.50
2022-11-06T23:28:59.370Z,98.40
2022-11-06T23:31:26.702Z,98.20
2022-11-06T23:33:54.821Z,97.50
2022-11-06T23:36:22.334Z,98.00
2022-11-06T23:38:53.000Z,97.40
2022-11-06T23:41:39.240Z,96.80
2022-11-06T23:44:26.595Z,97.20
2022-11-06T23:46:53.943Z,97.20
2022-11-06T23:49:21.287Z,96.90
2022-11-06T23:51:48.818Z,96.70
2022-11-06T23:54:16.190Z,96.90
2022-11-06T23:56:43.506Z,96.60
2022-11-06T23:59:11.209Z,96.30
